sensor_id;sensor_type;location;lat;lon;timestamp;temperature;humidity
5346;DHT22;2695;49.444;11.054;2022-11-12T00:01:12;7.30;99.90
5346;DHT22;2695;49.444;11.054;2022-11-12T00:03:42;7.20;99.90
5346;DHT22;2695;49.444;11.054;2022-11-12T00:06:10;7.20;99.90
5346;DHT22;2695;49.444;11.054;2022-11-12T00:08:38;7.20;99.90
5346;DHT22;2695;49.444;11.054;2022-11-12T00:11:06;7.20;99.90
5346;DHT22;2695;49.444;11.054;2022-11-12T00:13:34;7.20;99.90
5346;DHT22;2695;49.444;11.054;2022-11-12T00:16:02;7.30;99.90
5346;DHT22;2695;49.444;11.054;2022-11-12T00:18:31;7.20;99.90
5346;DHT22;2695;49.444;11.054;2022-11-12T00:21:00;7.10;99.90
5346;DHT22;2695;49.444;11.054;2022-11-12T00:23:28;7.10;99.90
5346;DHT22;2695;49.444;11.054;2022-11-12T00:25:58;7.10;99.90
5346;DHT22;2695;49.444;11.054;2022-11-12T00:28:26;7.10;99.90
5346;DHT22;2695;49.444;11.054;2022-11-12T00:31:06;7.10;99.90
5346;DHT22;2695;49.444;11.054;2022-11-12T00:33:37;7.10;99.90
5346;DHT22;2695;49.444;11.054;2022-11-12T00:36:08;7.20;99.90
5346;DHT22;2695;49.444;11.054;2022-11-12T00:38:36;7.10;99.90
5346;DHT22;2695;49.444;11.054;2022-11-12T00:41:04;7.10;99.90
5346;DHT22;2695;49.444;11.054;2022-11-12T00:43:33;7.20;99.90
5346;DHT22;2695;49.444;11.054;2022-11-12T00:46:01;7.20;99.90
5346;DHT22;2695;49.444;11.054;2022-11-12T00:48:29;7.20;99.90
5346;DHT22;2695;49.444;11.054;2022-11-12T00:51:01;7.20;99.90
5346;DHT22;2695;49.444;11.054;2022-11-12T00:53:31;7.30;99.90
5346;DHT22;2695;49.444;11.054;2022-11-12T00:56:01;7.40;99.90
5346;DHT22;2695;49.444;11.054;2022-11-12T00:58:29;7.30;99.90
5346;DHT22;2695;49.444;11.054;2022-11-12T01:01:02;7.40;99.90
5346;DHT22;2695;49.444;11.054;2022-11-12T01:03:31;7.30;99.90
5346;DHT22;2695;49.444;11.054;2022-11-12T01:06:01;7.30;99.90
5346;DHT22;2695;49.444;11.054;2022-11-12T01:08:31;7.30;99.90
5346;DHT22;2695;49.444;11.054;2022-11-12T01:11:05;7.30;99.90
5346;DHT22;2695;49.444;11.054;2022-11-12T01:13:33;7.30;99.90
5346;DHT22;2695;49.444;11.054;2022-11-12T01:16:11;7.30;99.90
5346;DHT22;2695;49.444;11.054;2022-11-12T01:18:40;7.20;99.90
5346;DHT22;2695;49.444;11.054;2022-11-12T01:21:08;7.20;99.90
5346;DHT22;2695;49.444;11.054;2022-11-12T01:23:39;7.10;99.90
5346;DHT22;2695;49.444;11.054;2022-11-12T01:26:09;7.10;99.90
5346;DHT22;2695;49.444;11.054;2022-11-12T01:28:38;7.00;99.90
5346;DHT22;2695;49.444;11.054;2022-11-12T01:31:11;7.00;99.90
5346;DHT22;2695;49.444;11.054;2022-11-12T01:33:39;7.00;99.90
5346;DHT22;2695;49.444;11.054;2022-11-12T01:36:07;7.10;99.90
5346;DHT22;2695;49.444;11.054;2022-11-12T01:38:38;7.10;99.90
5346;DHT22;2695;49.444;11.054;2022-11-12T01:41:07;7.10;99.90
5346;DHT22;2695;49.444;11.054;2022-11-12T01:43:36;7.10;99.90
5346;DHT22;2695;49.444;11.054;2022-11-12T01:46:10;7.20;99.90
5346;DHT22;2695;49.444;11.054;2022-11-12T01:48:46;7.20;99.90
5346;DHT22;2695;49.444;11.054;2022-11-12T01:51:15;7.20;99.90
5346;DHT22;2695;49.444;11.054;2022-11-12T01:53:46;7.20;99.90
5346;DHT22;2695;49.444;11.054;2022-11-12T01:56:17;7.30;99.90
5346;DHT22;2695;49.444;11.054;2022-11-12T01:58:49;7.10;99.90
5346;DHT22;2695;49.444;11.054;2022-11-12T02:01:19;7.20;99.90
5346;DHT22;2695;49.444;11.054;2022-11-12T02:03:47;7.00;99.90
5346;DHT22;2695;49.444;11.054;2022-11-12T02:06:15;7.00;99.90
5346;DHT22;2695;49.444;11.054;2022-11-12T02:08:45;7.00;99.90
5346;DHT22;2695;49.444;11.054;2022-11-12T02:11:17;6.90;99.90
5346;DHT22;2695;49.444;11.054;2022-11-12T02:13:47;6.90;99.90
5346;DHT22;2695;49.444;11.054;2022-11-12T02:16:29;7.00;99.90
5346;DHT22;2695;49.444;11.054;2022-11-12T02:18:59;7.00;99.90
5346;DHT22;2695;49.444;11.054;2022-11-12T02:21:28;7.00;99.90
5346;DHT22;2695;49.444;11.054;2022-11-12T02:23:57;7.00;99.90
5346;DHT22;2695;49.444;11.054;2022-11-12T02:26:29;7.00;99.90
5346;DHT22;2695;49.444;11.054;2022-11-12T02:28:58;7.10;99.90
5346;DHT22;2695;49.444;11.054;2022-11-12T02:31:27;7.10;99.90
5346;DHT22;2695;49.444;11.054;2022-11-12T02:33:55;7.20;99.90
5346;DHT22;2695;49.444;11.054;2022-11-12T02:36:23;7.20;99.90
5346;DHT22;2695;49.444;11.054;2022-11-12T02:38:53;7.20;99.90
5346;DHT22;2695;49.444;11.054;2022-11-12T02:41:21;7.20;99.90
5346;DHT22;2695;49.444;11.054;2022-11-12T02:43:49;7.20;99.90
5346;DHT22;2695;49.444;11.054;2022-11-12T02:46:17;7.20;99.90
5346;DHT22;2695;49.444;11.054;2022-11-12T02:48:45;7.30;99.90
5346;DHT22;2695;49.444;11.054;2022-11-12T02:51:13;7.30;99.90
5346;DHT22;2695;49.444;11.054;2022-11-12T02:53:47;7.30;99.90
5346;DHT22;2695;49.444;11.054;2022-11-12T02:56:18;7.30;99.90
5346;DHT22;2695;49.444;11.054;2022-11-12T02:58:51;7.10;99.90
5346;DHT22;2695;49.444;11.054;2022-11-12T03:01:33;7.30;99.90
5346;DHT22;2695;49.444;11.054;2022-11-12T03:04:03;7.30;99.90
5346;DHT22;2695;49.444;11.054;2022-11-12T03:06:38;7.30;99.90
5346;DHT22;2695;49.444;11.054;2022-11-12T03:09:10;8.70;99.90
5346;DHT22;2695;49.444;11.054;2022-11-12T03:11:40;7.70;99.90
5346;DHT22;2695;49.444;11.054;2022-11-12T03:14:22;7.20;99.90
5346;DHT22;2695;49.444;11.054;2022-11-12T03:16:50;7.20;99.90
5346;DHT22;2695;49.444;11.054;2022-11-12T03:19:18;7.20;99.90
5346;DHT22;2695;49.444;11.054;2022-11-12T03:21:46;7.20;99.90
5346;DHT22;2695;49.444;11.054;2022-11-12T03:24:14;7.20;99.90
5346;DHT22;2695;49.444;11.054;2022-11-12T03:26:44;7.20;99.90
5346;DHT22;2695;49.444;11.054;2022-11-12T03:29:12;7.30;99.90
5346;DHT22;2695;49.444;11.054;2022-11-12T03:31:40;7.20;99.90
5346;DHT22;2695;49.444;11.054;2022-11-12T03:34:09;7.10;99.90
5346;DHT22;2695;49.444;11.054;2022-11-12T03:36:37;7.20;99.90
5346;DHT22;2695;49.444;11.054;2022-11-12T03:39:06;7.10;99.90
5346;DHT22;2695;49.444;11.054;2022-11-12T03:41:34;7.10;99.90
5346;DHT22;2695;49.444;11.054;2022-11-12T03:44:04;7.00;99.90
5346;DHT22;2695;49.444;11.054;2022-11-12T03:46:32;7.00;99.90
5346;DHT22;2695;49.444;11.054;2022-11-12T03:49:03;6.90;99.90
5346;DHT22;2695;49.444;11.054;2022-11-12T03:51:31;6.80;99.90
5346;DHT22;2695;49.444;11.054;2022-11-12T03:53:59;6.90;99.90
5346;DHT22;2695;49.444;11.054;2022-11-12T03:56:27;6.70;99.90
5346;DHT22;2695;49.444;11.054;2022-11-12T03:58:55;6.70;99.90
5346;DHT22;2695;49.444;11.054;2022-11-12T04:01:26;6.60;99.90
5346;DHT22;2695;49.444;11.054;2022-11-12T04:03:56;6.60;99.90
5346;DHT22;2695;49.444;11.054;2022-11-12T04:06:24;6.60;99.90
5346;DHT22;2695;49.444;11.054;2022-11-12T04:09:10;6.60;99.90
5346;DHT22;2695;49.444;11.054;2022-11-12T04:11:38;6.50;99.90
5346;DHT22;2695;49.444;11.054;2022-11-12T04:14:06;6.50;99.90
5346;DHT22;2695;49.444;11.054;2022-11-12T04:16:35;6.40;99.90
5346;DHT22;2695;49.444;11.054;2022-11-12T04:19:21;6.30;99.90
5346;DHT22;2695;49.444;11.054;2022-11-12T04:22:09;6.30;99.90
5346;DHT22;2695;49.444;11.054;2022-11-12T04:24:40;6.20;99.90
5346;DHT22;2695;49.444;11.054;2022-11-12T04:27:27;6.20;99.90
5346;DHT22;2695;49.444;11.054;2022-11-12T04:29:56;6.10;99.90
5346;DHT22;2695;49.444;11.054;2022-11-12T04:32:48;6.10;99.90
5346;DHT22;2695;49.444;11.054;2022-11-12T04:35:16;6.20;99.90
5346;DHT22;2695;49.444;11.054;2022-11-12T04:37:46;6.20;99.90
5346;DHT22;2695;49.444;11.054;2022-11-12T04:40:16;6.10;99.90
5346;DHT22;2695;49.444;11.054;2022-11-12T04:43:03;6.20;99.90
5346;DHT22;2695;49.444;11.054;2022-11-12T04:45:50;6.20;99.90
5346;DHT22;2695;49.444;11.054;2022-11-12T04:48:21;6.20;99.90
5346;DHT22;2695;49.444;11.054;2022-11-12T04:50:53;6.10;99.90
5346;DHT22;2695;49.444;11.054;2022-11-12T04:53:23;6.10;99.90
5346;DHT22;2695;49.444;11.054;2022-11-12T04:55:52;6.10;99.90
5346;DHT22;2695;49.444;11.054;2022-11-12T04:58:20;6.10;99.90
5346;DHT22;2695;49.444;11.054;2022-11-12T05:00:50;6.10;99.90
5346;DHT22;2695;49.444;11.054;2022-11-12T05:03:21;6.20;99.90
5346;DHT22;2695;49.444;11.054;2022-11-12T05:05:49;6.20;99.90
5346;DHT22;2695;49.444;11.054;2022-11-12T05:08:18;6.20;99.90
5346;DHT22;2695;49.444;11.054;2022-11-12T05:10:46;6.30;99.90
5346;DHT22;2695;49.444;11.054;2022-11-12T05:13:14;6.20;99.90
5346;DHT22;2695;49.444;11.054;2022-11-12T05:15:42;6.20;99.90
5346;DHT22;2695;49.444;11.054;2022-11-12T05:18:10;6.20;99.90
5346;DHT22;2695;49.444;11.054;2022-11-12T05:20:40;6.10;99.90
5346;DHT22;2695;49.444;11.054;2022-11-12T05:23:08;6.10;99.90
5346;DHT22;2695;49.444;11.054;2022-11-12T05:25:36;6.10;99.90
5346;DHT22;2695;49.444;11.054;2022-11-12T05:28:04;6.10;99.90
5346;DHT22;2695;49.444;11.054;2022-11-12T05:30:33;6.10;99.90
5346;DHT22;2695;49.444;11.054;2022-11-12T05:33:02;6.10;99.90
5346;DHT22;2695;49.444;11.054;2022-11-12T05:35:30;6.10;99.90
5346;DHT22;2695;49.444;11.054;2022-11-12T05:38:00;6.10;99.90
5346;DHT22;2695;49.444;11.054;2022-11-12T05:40:28;6.10;99.90
5346;DHT22;2695;49.444;11.054;2022-11-12T05:42:56;6.10;99.90
5346;DHT22;2695;49.444;11.054;2022-11-12T05:45:24;6.10;99.90
5346;DHT22;2695;49.444;11.054;2022-11-12T05:47:52;6.10;99.90
5346;DHT22;2695;49.444;11.054;2022-11-12T05:50:21;6.10;99.90
5346;DHT22;2695;49.444;11.054;2022-11-12T05:52:49;6.10;99.90
5346;DHT22;2695;49.444;11.054;2022-11-12T05:55:18;6.10;99.90
5346;DHT22;2695;49.444;11.054;2022-11-12T05:57:47;6.00;99.90
5346;DHT22;2695;49.444;11.054;2022-11-12T06:00:16;6.00;99.90
5346;DHT22;2695;49.444;11.054;2022-11-12T06:02:44;5.90;99.90
5346;DHT22;2695;49.444;11.054;2022-11-12T06:05:12;5.90;99.90
5346;DHT22;2695;49.444;11.054;2022-11-12T06:07:40;5.80;99.90
5346;DHT22;2695;49.444;11.054;2022-11-12T06:10:09;5.70;99.90
5346;DHT22;2695;49.444;11.054;2022-11-12T06:12:46;5.70;99.90
5346;DHT22;2695;49.444;11.054;2022-11-12T06:15:14;5.70;99.90
5346;DHT22;2695;49.444;11.054;2022-11-12T06:17:43;5.70;99.90
5346;DHT22;2695;49.444;11.054;2022-11-12T06:20:11;5.80;99.90
5346;DHT22;2695;49.444;11.054;2022-11-12T06:22:39;5.70;99.90
5346;DHT22;2695;49.444;11.054;2022-11-12T06:25:08;5.70;99.90
5346;DHT22;2695;49.444;11.054;2022-11-12T06:27:36;5.60;99.90
5346;DHT22;2695;49.444;11.054;2022-11-12T06:30:07;5.60;99.90
5346;DHT22;2695;49.444;11.054;2022-11-12T06:32:36;5.60;99.90
5346;DHT22;2695;49.444;11.054;2022-11-12T06:35:05;5.60;99.90
5346;DHT22;2695;49.444;11.054;2022-11-12T06:37:33;5.70;99.90
5346;DHT22;2695;49.444;11.054;2022-11-12T06:40:01;5.70;99.90
5346;DHT22;2695;49.444;11.054;2022-11-12T06:42:29;5.80;99.90
5346;DHT22;2695;49.444;11.054;2022-11-12T06:44:57;5.90;99.90
5346;DHT22;2695;49.444;11.054;2022-11-12T06:47:27;6.00;99.90
5346;DHT22;2695;49.444;11.054;2022-11-12T06:49:55;6.20;99.90
5346;DHT22;2695;49.444;11.054;2022-11-12T06:52:23;6.30;99.90
5346;DHT22;2695;49.444;11.054;2022-11-12T06:54:52;6.40;99.90
5346;DHT22;2695;49.444;11.054;2022-11-12T06:57:20;6.60;99.90
5346;DHT22;2695;49.444;11.054;2022-11-12T06:59:48;6.90;99.90
5346;DHT22;2695;49.444;11.054;2022-11-12T07:02:17;7.20;99.90
5346;DHT22;2695;49.444;11.054;2022-11-12T07:04:46;7.60;99.90
5346;DHT22;2695;49.444;11.054;2022-11-12T07:07:14;8.00;99.90
5346;DHT22;2695;49.444;11.054;2022-11-12T07:09:42;8.50;99.90
5346;DHT22;2695;49.444;11.054;2022-11-12T07:12:11;9.10;99.90
5346;DHT22;2695;49.444;11.054;2022-11-12T07:14:39;9.60;99.90
5346;DHT22;2695;49.444;11.054;2022-11-12T07:17:07;10.20;99.90
5346;DHT22;2695;49.444;11.054;2022-11-12T07:19:35;10.80;99.90
5346;DHT22;2695;49.444;11.054;2022-11-12T07:22:05;11.30;99.90
5346;DHT22;2695;49.444;11.054;2022-11-12T07:24:33;11.80;99.90
5346;DHT22;2695;49.444;11.054;2022-11-12T07:27:01;12.20;99.90
5346;DHT22;2695;49.444;11.054;2022-11-12T07:29:29;12.60;99.90
5346;DHT22;2695;49.444;11.054;2022-11-12T07:32:13;13.00;99.90
5346;DHT22;2695;49.444;11.054;2022-11-12T07:34:41;13.50;99.90
5346;DHT22;2695;49.444;11.054;2022-11-12T07:37:11;13.70;99.90
5346;DHT22;2695;49.444;11.054;2022-11-12T07:39:39;14.10;99.90
5346;DHT22;2695;49.444;11.054;2022-11-12T07:42:07;14.50;99.90
5346;DHT22;2695;49.444;11.054;2022-11-12T07:44:36;14.90;99.90
5346;DHT22;2695;49.444;11.054;2022-11-12T07:47:04;15.20;99.90
5346;DHT22;2695;49.444;11.054;2022-11-12T07:49:32;15.40;99.90
5346;DHT22;2695;49.444;11.054;2022-11-12T07:52:00;15.70;99.90
5346;DHT22;2695;49.444;11.054;2022-11-12T07:54:29;16.00;99.90
5346;DHT22;2695;49.444;11.054;2022-11-12T07:56:58;16.30;99.90
5346;DHT22;2695;49.444;11.054;2022-11-12T07:59:26;16.60;99.90
5346;DHT22;2695;49.444;11.054;2022-11-12T08:01:55;16.70;99.90
5346;DHT22;2695;49.444;11.054;2022-11-12T08:04:23;16.80;99.80
5346;DHT22;2695;49.444;11.054;2022-11-12T08:06:56;16.70;99.90
5346;DHT22;2695;49.444;11.054;2022-11-12T08:09:26;16.50;99.50
5346;DHT22;2695;49.444;11.054;2022-11-12T08:11:56;15.90;99.90
5346;DHT22;2695;49.444;11.054;2022-11-12T08:14:24;15.80;99.90
5346;DHT22;2695;49.444;11.054;2022-11-12T08:16:52;15.90;99.90
5346;DHT22;2695;49.444;11.054;2022-11-12T08:19:20;16.30;99.90
5346;DHT22;2695;49.444;11.054;2022-11-12T08:21:48;16.70;99.30
5346;DHT22;2695;49.444;11.054;2022-11-12T08:24:17;17.00;98.60
5346;DHT22;2695;49.444;11.054;2022-11-12T08:26:45;17.10;98.30
5346;DHT22;2695;49.444;11.054;2022-11-12T08:29:14;17.10;98.10
5346;DHT22;2695;49.444;11.054;2022-11-12T08:31:42;16.90;98.10
5346;DHT22;2695;49.444;11.054;2022-11-12T08:34:14;17.10;97.70
5346;DHT22;2695;49.444;11.054;2022-11-12T08:36:48;17.20;97.40
5346;DHT22;2695;49.444;11.054;2022-11-12T08:39:16;17.10;97.20
5346;DHT22;2695;49.444;11.054;2022-11-12T08:41:44;16.90;97.50
5346;DHT22;2695;49.444;11.054;2022-11-12T08:44:14;16.70;98.10
5346;DHT22;2695;49.444;11.054;2022-11-12T08:46:42;16.90;98.10
5346;DHT22;2695;49.444;11.054;2022-11-12T08:49:11;17.20;97.50
5346;DHT22;2695;49.444;11.054;2022-11-12T08:51:39;17.30;97.20
5346;DHT22;2695;49.444;11.054;2022-11-12T08:54:07;17.70;96.50
5346;DHT22;2695;49.444;11.054;2022-11-12T08:56:35;18.00;95.80
5346;DHT22;2695;49.444;11.054;2022-11-12T08:59:03;18.30;95.40
5346;DHT22;2695;49.444;11.054;2022-11-12T09:01:40;18.60;94.80
5346;DHT22;2695;49.444;11.054;2022-11-12T09:04:21;18.80;94.20
5346;DHT22;2695;49.444;11.054;2022-11-12T09:06:49;19.00;94.40
5346;DHT22;2695;49.444;11.054;2022-11-12T09:13:08;19.60;92.80
5346;DHT22;2695;49.444;11.054;2022-11-12T09:15:36;19.60;92.40
5346;DHT22;2695;49.444;11.054;2022-11-12T09:18:09;19.60;92.30
5346;DHT22;2695;49.444;11.054;2022-11-12T09:20:38;19.60;91.90
5346;DHT22;2695;49.444;11.054;2022-11-12T09:23:08;19.60;91.90
5346;DHT22;2695;49.444;11.054;2022-11-12T09:25:37;19.90;91.60
5346;DHT22;2695;49.444;11.054;2022-11-12T09:28:07;20.30;90.70
5346;DHT22;2695;49.444;11.054;2022-11-12T09:30:36;20.60;90.20
5346;DHT22;2695;49.444;11.054;2022-11-12T09:33:07;20.80;89.80
5346;DHT22;2695;49.444;11.054;2022-11-12T09:35:35;21.00;89.20
5346;DHT22;2695;49.444;11.054;2022-11-12T09:38:05;20.80;89.30
5346;DHT22;2695;49.444;11.054;2022-11-12T09:40:40;20.90;87.60
5346;DHT22;2695;49.444;11.054;2022-11-12T09:43:17;20.50;87.50
5346;DHT22;2695;49.444;11.054;2022-11-12T09:45:46;20.00;89.10
5346;DHT22;2695;49.444;11.054;2022-11-12T09:48:46;19.60;90.00
5346;DHT22;2695;49.444;11.054;2022-11-12T09:51:23;19.40;90.50
5346;DHT22;2695;49.444;11.054;2022-11-12T09:53:54;19.30;90.70
5346;DHT22;2695;49.444;11.054;2022-11-12T09:56:24;19.30;90.80
5346;DHT22;2695;49.444;11.054;2022-11-12T09:58:53;19.20;90.90
5346;DHT22;2695;49.444;11.054;2022-11-12T10:01:29;19.20;91.00
5346;DHT22;2695;49.444;11.054;2022-11-12T10:04:17;19.30;91.30
5346;DHT22;2695;49.444;11.054;2022-11-12T10:06:54;19.20;91.20
5346;DHT22;2695;49.444;11.054;2022-11-12T10:09:28;19.20;91.20
5346;DHT22;2695;49.444;11.054;2022-11-12T10:12:05;19.40;91.70
5346;DHT22;2695;49.444;11.054;2022-11-12T10:15:16;19.60;91.10
5346;DHT22;2695;49.444;11.054;2022-11-12T10:18:06;19.70;90.70
5346;DHT22;2695;49.444;11.054;2022-11-12T10:20:41;19.60;90.80
5346;DHT22;2695;49.444;11.054;2022-11-12T10:23:16;19.50;90.80
5346;DHT22;2695;49.444;11.054;2022-11-12T10:25:47;19.10;91.20
5346;DHT22;2695;49.444;11.054;2022-11-12T10:28:24;18.70;91.90
5346;DHT22;2695;49.444;11.054;2022-11-12T10:31:03;18.10;92.60
5346;DHT22;2695;49.444;11.054;2022-11-12T10:33:34;17.60;93.40
5346;DHT22;2695;49.444;11.054;2022-11-12T10:36:23;17.20;94.10
5346;DHT22;2695;49.444;11.054;2022-11-12T10:38:53;17.00;94.80
5346;DHT22;2695;49.444;11.054;2022-11-12T10:41:24;16.60;95.50
5346;DHT22;2695;49.444;11.054;2022-11-12T10:44:09;16.50;96.10
5346;DHT22;2695;49.444;11.054;2022-11-12T10:46:40;16.50;96.20
5346;DHT22;2695;49.444;11.054;2022-11-12T10:49:22;16.50;96.50
5346;DHT22;2695;49.444;11.054;2022-11-12T10:51:56;16.50;96.50
5346;DHT22;2695;49.444;11.054;2022-11-12T10:54:29;16.50;96.80
5346;DHT22;2695;49.444;11.054;2022-11-12T10:57:18;16.70;96.60
5346;DHT22;2695;49.444;11.054;2022-11-12T11:00:06;16.80;96.70
5346;DHT22;2695;49.444;11.054;2022-11-12T11:02:35;16.70;96.60
5346;DHT22;2695;49.444;11.054;2022-11-12T11:05:28;16.60;97.00
5346;DHT22;2695;49.444;11.054;2022-11-12T11:07:58;16.60;97.40
5346;DHT22;2695;49.444;11.054;2022-11-12T11:10:28;16.60;97.50
5346;DHT22;2695;49.444;11.054;2022-11-12T11:13:19;16.40;98.10
5346;DHT22;2695;49.444;11.054;2022-11-12T11:15:59;16.50;98.10
5346;DHT22;2695;49.444;11.054;2022-11-12T11:18:28;16.70;98.30
5346;DHT22;2695;49.444;11.054;2022-11-12T11:21:05;16.80;98.00
5346;DHT22;2695;49.444;11.054;2022-11-12T11:23:42;16.80;98.00
5346;DHT22;2695;49.444;11.054;2022-11-12T11:26:23;17.00;98.10
5346;DHT22;2695;49.444;11.054;2022-11-12T11:28:58;16.90;98.20
5346;DHT22;2695;49.444;11.054;2022-11-12T11:31:38;17.00;98.30
5346;DHT22;2695;49.444;11.054;2022-11-12T11:34:15;17.00;98.30
5346;DHT22;2695;49.444;11.054;2022-11-12T11:36:55;17.00;98.40
5346;DHT22;2695;49.444;11.054;2022-11-12T11:39:35;17.00;98.40
5346;DHT22;2695;49.444;11.054;2022-11-12T11:42:17;17.00;98.70
5346;DHT22;2695;49.444;11.054;2022-11-12T11:44:56;16.90;98.50
5346;DHT22;2695;49.444;11.054;2022-11-12T11:47:37;16.90;98.80
5346;DHT22;2695;49.444;11.054;2022-11-12T11:50:27;17.00;98.90
5346;DHT22;2695;49.444;11.054;2022-11-12T11:53:05;17.00;98.90
5346;DHT22;2695;49.444;11.054;2022-11-12T11:55:49;17.10;98.80
5346;DHT22;2695;49.444;11.054;2022-11-12T11:58:41;17.00;98.70
5346;DHT22;2695;49.444;11.054;2022-11-12T12:01:19;17.00;98.70
5346;DHT22;2695;49.444;11.054;2022-11-12T12:04:13;17.10;98.70
5346;DHT22;2695;49.444;11.054;2022-11-12T12:06:58;17.10;98.70
5346;DHT22;2695;49.444;11.054;2022-11-12T12:09:37;17.20;98.80
5346;DHT22;2695;49.444;11.054;2022-11-12T12:12:19;17.20;98.60
5346;DHT22;2695;49.444;11.054;2022-11-12T12:14:57;17.20;98.70
5346;DHT22;2695;49.444;11.054;2022-11-12T12:17:38;17.20;98.70
5346;DHT22;2695;49.444;11.054;2022-11-12T12:20:26;17.10;98.90
5346;DHT22;2695;49.444;11.054;2022-11-12T12:23:02;17.10;98.90
5346;DHT22;2695;49.444;11.054;2022-11-12T12:25:33;16.90;99.10
5346;DHT22;2695;49.444;11.054;2022-11-12T12:28:11;16.80;99.20
5346;DHT22;2695;49.444;11.054;2022-11-12T12:30:44;16.80;99.30
5346;DHT22;2695;49.444;11.054;2022-11-12T12:33:21;16.80;99.50
5346;DHT22;2695;49.444;11.054;2022-11-12T12:35:54;16.70;99.70
5346;DHT22;2695;49.444;11.054;2022-11-12T12:38:27;16.60;99.80
5346;DHT22;2695;49.444;11.054;2022-11-12T12:41:03;16.50;99.70
5346;DHT22;2695;49.444;11.054;2022-11-12T12:43:35;16.40;99.90
5346;DHT22;2695;49.444;11.054;2022-11-12T12:46:05;16.30;99.90
5346;DHT22;2695;49.444;11.054;2022-11-12T12:48:35;16.30;99.90
5346;DHT22;2695;49.444;11.054;2022-11-12T12:51:05;16.20;99.90
5346;DHT22;2695;49.444;11.054;2022-11-12T12:53:34;16.10;99.90
5346;DHT22;2695;49.444;11.054;2022-11-12T12:56:03;16.10;99.90
5346;DHT22;2695;49.444;11.054;2022-11-12T12:58:42;16.00;99.90
5346;DHT22;2695;49.444;11.054;2022-11-12T13:01:27;15.90;99.90
5346;DHT22;2695;49.444;11.054;2022-11-12T13:04:00;15.90;99.90
5346;DHT22;2695;49.444;11.054;2022-11-12T13:06:31;15.80;99.90
5346;DHT22;2695;49.444;11.054;2022-11-12T13:09:03;15.90;99.90
5346;DHT22;2695;49.444;11.054;2022-11-12T13:11:54;15.90;99.90
5346;DHT22;2695;49.444;11.054;2022-11-12T13:15:08;15.80;99.90
5346;DHT22;2695;49.444;11.054;2022-11-12T13:17:48;15.80;99.90
5346;DHT22;2695;49.444;11.054;2022-11-12T13:20:35;15.70;99.90
5346;DHT22;2695;49.444;11.054;2022-11-12T13:23:41;15.80;99.90
5346;DHT22;2695;49.444;11.054;2022-11-12T13:26:51;15.70;99.90
5346;DHT22;2695;49.444;11.054;2022-11-12T13:29:44;15.70;99.90
5346;DHT22;2695;49.444;11.054;2022-11-12T13:32:34;15.60;99.90
5346;DHT22;2695;49.444;11.054;2022-11-12T13:35:23;15.60;99.90
5346;DHT22;2695;49.444;11.054;2022-11-12T13:38:13;15.50;99.90
5346;DHT22;2695;49.444;11.054;2022-11-12T13:40:51;15.50;99.90
5346;DHT22;2695;49.444;11.054;2022-11-12T13:43:30;15.40;99.90
5346;DHT22;2695;49.444;11.054;2022-11-12T13:46:26;15.30;99.90
5346;DHT22;2695;49.444;11.054;2022-11-12T13:49:11;15.20;99.90
5346;DHT22;2695;49.444;11.054;2022-11-12T13:51:45;15.10;99.90
5346;DHT22;2695;49.444;11.054;2022-11-12T13:54:31;15.10;99.90
5346;DHT22;2695;49.444;11.054;2022-11-12T13:57:26;15.00;99.90
5346;DHT22;2695;49.444;11.054;2022-11-12T14:00:25;14.90;99.90
5346;DHT22;2695;49.444;11.054;2022-11-12T14:02:58;14.90;99.90
5346;DHT22;2695;49.444;11.054;2022-11-12T14:05:30;14.80;99.90
5346;DHT22;2695;49.444;11.054;2022-11-12T14:13:04;14.60;99.90
5346;DHT22;2695;49.444;11.054;2022-11-12T14:15:02;14.50;99.90
5346;DHT22;2695;49.444;11.054;2022-11-12T14:17:56;14.50;99.90
5346;DHT22;2695;49.444;11.054;2022-11-12T14:20:35;14.50;99.90
5346;DHT22;2695;49.444;11.054;2022-11-12T14:23:10;14.40;99.90
5346;DHT22;2695;49.444;11.054;2022-11-12T14:25:46;14.30;99.90
5346;DHT22;2695;49.444;11.054;2022-11-12T14:28:24;14.30;99.90
5346;DHT22;2695;49.444;11.054;2022-11-12T14:30:53;14.20;99.90
5346;DHT22;2695;49.444;11.054;2022-11-12T14:33:23;14.10;99.90
5346;DHT22;2695;49.444;11.054;2022-11-12T14:35:59;14.20;99.90
5346;DHT22;2695;49.444;11.054;2022-11-12T14:38:31;14.00;99.90
5346;DHT22;2695;49.444;11.054;2022-11-12T14:41:02;13.90;99.90
5346;DHT22;2695;49.444;11.054;2022-11-12T14:43:35;13.90;99.90
5346;DHT22;2695;49.444;11.054;2022-11-12T14:46:17;13.80;99.90
5346;DHT22;2695;49.444;11.054;2022-11-12T14:48:47;13.70;99.90
5346;DHT22;2695;49.444;11.054;2022-11-12T14:51:19;13.70;99.90
5346;DHT22;2695;49.444;11.054;2022-11-12T14:53:53;13.60;99.90
5346;DHT22;2695;49.444;11.054;2022-11-12T14:56:26;13.50;99.90
5346;DHT22;2695;49.444;11.054;2022-11-12T14:59:01;13.40;99.90
5346;DHT22;2695;49.444;11.054;2022-11-12T15:01:32;13.30;99.90
5346;DHT22;2695;49.444;11.054;2022-11-12T15:04:22;13.20;99.90
5346;DHT22;2695;49.444;11.054;2022-11-12T15:06:54;13.10;99.90
5346;DHT22;2695;49.444;11.054;2022-11-12T15:09:35;13.00;99.90
5346;DHT22;2695;49.444;11.054;2022-11-12T15:12:04;12.80;99.90
5346;DHT22;2695;49.444;11.054;2022-11-12T15:14:34;12.80;99.90
5346;DHT22;2695;49.444;11.054;2022-11-12T15:17:02;12.80;99.90
5346;DHT22;2695;49.444;11.054;2022-11-12T15:19:31;12.60;99.90
5346;DHT22;2695;49.444;11.054;2022-11-12T15:22:02;12.50;99.90
5346;DHT22;2695;49.444;11.054;2022-11-12T15:24:32;12.50;99.90
5346;DHT22;2695;49.444;11.054;2022-11-12T15:27:25;12.40;99.90
5346;DHT22;2695;49.444;11.054;2022-11-12T15:30:06;12.30;99.90
5346;DHT22;2695;49.444;11.054;2022-11-12T15:32:34;12.20;99.90
5346;DHT22;2695;49.444;11.054;2022-11-12T15:35:03;12.10;99.90
5346;DHT22;2695;49.444;11.054;2022-11-12T15:37:40;12.00;99.90
5346;DHT22;2695;49.444;11.054;2022-11-12T15:40:14;12.00;99.90
5346;DHT22;2695;49.444;11.054;2022-11-12T15:42:46;11.90;99.90
5346;DHT22;2695;49.444;11.054;2022-11-12T15:45:19;11.90;99.90
5346;DHT22;2695;49.444;11.054;2022-11-12T15:47:54;11.80;99.90
5346;DHT22;2695;49.444;11.054;2022-11-12T15:50:23;11.80;99.90
5346;DHT22;2695;49.444;11.054;2022-11-12T15:52:53;11.70;99.90
5346;DHT22;2695;49.444;11.054;2022-11-12T15:55:21;11.60;99.90
5346;DHT22;2695;49.444;11.054;2022-11-12T15:57:51;11.70;99.90
5346;DHT22;2695;49.444;11.054;2022-11-12T16:00:23;11.60;99.90
5346;DHT22;2695;49.444;11.054;2022-11-12T16:02:55;11.50;99.90
5346;DHT22;2695;49.444;11.054;2022-11-12T16:05:25;11.50;99.90
5346;DHT22;2695;49.444;11.054;2022-11-12T16:07:54;11.50;99.90
5346;DHT22;2695;49.444;11.054;2022-11-12T16:10:23;11.50;99.90
5346;DHT22;2695;49.444;11.054;2022-11-12T16:12:51;11.50;99.90
5346;DHT22;2695;49.444;11.054;2022-11-12T16:15:24;11.50;99.90
5346;DHT22;2695;49.444;11.054;2022-11-12T16:17:54;11.40;99.90
5346;DHT22;2695;49.444;11.054;2022-11-12T16:20:24;11.30;99.90
5346;DHT22;2695;49.444;11.054;2022-11-12T16:22:52;11.30;99.90
5346;DHT22;2695;49.444;11.054;2022-11-12T16:25:25;11.20;99.90
5346;DHT22;2695;49.444;11.054;2022-11-12T16:27:55;11.30;99.90
5346;DHT22;2695;49.444;11.054;2022-11-12T16:30:25;11.20;99.90
5346;DHT22;2695;49.444;11.054;2022-11-12T16:32:56;11.10;99.90
5346;DHT22;2695;49.444;11.054;2022-11-12T16:35:25;11.10;99.90
5346;DHT22;2695;49.444;11.054;2022-11-12T16:37:54;11.10;99.90